sensor_id;sensor_type;location;lat;lon;timestamp;P1;durP1;ratioP1;P2;durP2;ratioP2
10659;SDS011;5378;53.206;13.316;2023-02-28T00:01:51;2.55;;;1.05;;
10659;SDS011;5378;53.206;13.316;2023-02-28T00:04:38;4.20;;;1.55;;
10659;SDS011;5378;53.206;13.316;2023-02-28T00:07:25;2.35;;;1.25;;
10659;SDS011;5378;53.206;13.316;2023-02-28T00:10:13;2.25;;;1.55;;
10659;SDS011;5378;53.206;13.316;2023-02-28T00:13:06;2.45;;;1.10;;
10659;SDS011;5378;53.206;13.316;2023-02-28T00:16:00;2.20;;;0.95;;
10659;SDS011;5378;53.206;13.316;2023-02-28T00:18:48;2.80;;;1.00;;
10659;SDS011;5378;53.206;13.316;2023-02-28T00:21:36;2.03;;;0.90;;
10659;SDS011;5378;53.206;13.316;2023-02-28T00:24:26;1.88;;;1.15;;
10659;SDS011;5378;53.206;13.316;2023-02-28T00:27:13;6.22;;;1.42;;
10659;SDS011;5378;53.206;13.316;2023-02-28T00:30:02;2.25;;;1.52;;
10659;SDS011;5378;53.206;13.316;2023-02-28T00:32:51;1.90;;;1.20;;
10659;SDS011;5378;53.206;13.316;2023-02-28T00:35:38;2.22;;;1.45;;
10659;SDS011;5378;53.206;13.316;2023-02-28T00:38:27;4.03;;;1.33;;
10659;SDS011;5378;53.206;13.316;2023-02-28T00:41:14;3.25;;;1.55;;
10659;SDS011;5378;53.206;13.316;2023-02-28T00:44:01;15.90;;;1.60;;
10659;SDS011;5378;53.206;13.316;2023-02-28T00:46:51;2.13;;;1.00;;
10659;SDS011;5378;53.206;13.316;2023-02-28T00:49:42;2.28;;;1.13;;
10659;SDS011;5378;53.206;13.316;2023-02-28T00:52:29;6.45;;;2.00;;
10659;SDS011;5378;53.206;13.316;2023-02-28T00:55:16;5.88;;;2.35;;
10659;SDS011;5378;53.206;13.316;2023-02-28T00:58:04;7.65;;;2.50;;
10659;SDS011;5378;53.206;13.316;2023-02-28T01:00:51;3.88;;;1.95;;
10659;SDS011;5378;53.206;13.316;2023-02-28T01:03:40;3.22;;;1.77;;
10659;SDS011;5378;53.206;13.316;2023-02-28T01:06:27;1.52;;;1.17;;
10659;SDS011;5378;53.206;13.316;2023-02-28T01:09:14;3.10;;;1.83;;
10659;SDS011;5378;53.206;13.316;2023-02-28T01:12:01;5.35;;;1.85;;
10659;SDS011;5378;53.206;13.316;2023-02-28T01:14:49;3.00;;;1.45;;
10659;SDS011;5378;53.206;13.316;2023-02-28T01:17:36;1.70;;;1.02;;
10659;SDS011;5378;53.206;13.316;2023-02-28T01:20:24;4.30;;;1.30;;
10659;SDS011;5378;53.206;13.316;2023-02-28T01:23:11;4.05;;;1.30;;
10659;SDS011;5378;53.206;13.316;2023-02-28T01:26:02;3.80;;;1.13;;
10659;SDS011;5378;53.206;13.316;2023-02-28T01:28:51;2.03;;;1.20;;
10659;SDS011;5378;53.206;13.316;2023-02-28T01:31:39;3.70;;;1.02;;
10659;SDS011;5378;53.206;13.316;2023-02-28T01:34:26;2.97;;;1.10;;
10659;SDS011;5378;53.206;13.316;2023-02-28T01:37:15;2.33;;;0.90;;
10659;SDS011;5378;53.206;13.316;2023-02-28T01:40:02;1.65;;;1.17;;
10659;SDS011;5378;53.206;13.316;2023-02-28T01:42:49;2.67;;;1.20;;
10659;SDS011;5378;53.206;13.316;2023-02-28T01:45:37;2.65;;;0.95;;
10659;SDS011;5378;53.206;13.316;2023-02-28T01:48:26;4.05;;;1.05;;
10659;SDS011;5378;53.206;13.316;2023-02-28T01:51:17;2.67;;;0.88;;
10659;SDS011;5378;53.206;13.316;2023-02-28T01:54:10;1.75;;;1.25;;
10659;SDS011;5378;53.206;13.316;2023-02-28T01:57:01;2.60;;;0.90;;
10659;SDS011;5378;53.206;13.316;2023-02-28T01:59:50;3.40;;;1.92;;
10659;SDS011;5378;53.206;13.316;2023-02-28T02:02:40;1.40;;;0.75;;
10659;SDS011;5378;53.206;13.316;2023-02-28T02:05:29;7.30;;;1.05;;
10659;SDS011;5378;53.206;13.316;2023-02-28T02:08:18;6.20;;;1.02;;
10659;SDS011;5378;53.206;13.316;2023-02-28T02:11:16;3.15;;;1.13;;
10659;SDS011;5378;53.206;13.316;2023-02-28T02:14:14;2.08;;;0.98;;
10659;SDS011;5378;53.206;13.316;2023-02-28T02:17:15;1.60;;;0.65;;
10659;SDS011;5378;53.206;13.316;2023-02-28T02:20:28;2.10;;;1.27;;
10659;SDS011;5378;53.206;13.316;2023-02-28T02:23:57;2.00;;;1.00;;
10659;SDS011;5378;53.206;13.316;2023-02-28T02:27:07;2.10;;;0.90;;
10659;SDS011;5378;53.206;13.316;2023-02-28T02:30:18;2.00;;;0.80;;
10659;SDS011;5378;53.206;13.316;2023-02-28T02:33:27;7.70;;;1.55;;
10659;SDS011;5378;53.206;13.316;2023-02-28T02:36:37;2.50;;;1.40;;
10659;SDS011;5378;53.206;13.316;2023-02-28T02:39:29;2.17;;;1.05;;
10659;SDS011;5378;53.206;13.316;2023-02-28T02:42:23;1.58;;;0.80;;
10659;SDS011;5378;53.206;13.316;2023-02-28T02:45:15;3.50;;;1.50;;
10659;SDS011;5378;53.206;13.316;2023-02-28T02:48:08;1.10;;;0.70;;
10659;SDS011;5378;53.206;13.316;2023-02-28T02:50:59;3.72;;;1.23;;
10659;SDS011;5378;53.206;13.316;2023-02-28T02:53:53;2.60;;;1.45;;
10659;SDS011;5378;53.206;13.316;2023-02-28T02:56:44;3.25;;;1.02;;
10659;SDS011;5378;53.206;13.316;2023-02-28T02:59:34;1.67;;;1.00;;
10659;SDS011;5378;53.206;13.316;2023-02-28T03:02:23;1.67;;;0.98;;
10659;SDS011;5378;53.206;13.316;2023-02-28T03:05:13;3.92;;;1.35;;
10659;SDS011;5378;53.206;13.316;2023-02-28T03:08:05;3.28;;;1.77;;
10659;SDS011;5378;53.206;13.316;2023-02-28T03:10:56;4.50;;;1.35;;
10659;SDS011;5378;53.206;13.316;2023-02-28T03:13:52;2.00;;;1.10;;
10659;SDS011;5378;53.206;13.316;2023-02-28T03:16:49;2.38;;;1.10;;
10659;SDS011;5378;53.206;13.316;2023-02-28T03:20:07;1.60;;;1.15;;
10659;SDS011;5378;53.206;13.316;2023-02-28T03:23:10;4.45;;;1.63;;
10659;SDS011;5378;53.206;13.316;2023-02-28T03:26:06;3.75;;;1.30;;
10659;SDS011;5378;53.206;13.316;2023-02-28T03:29:00;3.42;;;1.13;;
10659;SDS011;5378;53.206;13.316;2023-02-28T03:31:52;1.98;;;0.80;;
10659;SDS011;5378;53.206;13.316;2023-02-28T03:34:44;1.60;;;0.73;;
10659;SDS011;5378;53.206;13.316;2023-02-28T03:37:37;2.33;;;1.10;;
10659;SDS011;5378;53.206;13.316;2023-02-28T03:40:27;1.55;;;0.93;;
10659;SDS011;5378;53.206;13.316;2023-02-28T03:43:22;2.20;;;1.02;;
10659;SDS011;5378;53.206;13.316;2023-02-28T03:46:14;4.13;;;1.02;;
10659;SDS011;5378;53.206;13.316;2023-02-28T03:49:08;3.97;;;1.15;;
10659;SDS011;5378;53.206;13.316;2023-02-28T03:52:01;1.40;;;0.85;;
10659;SDS011;5378;53.206;13.316;2023-02-28T03:54:52;20.13;;;2.17;;
10659;SDS011;5378;53.206;13.316;2023-02-28T03:57:43;2.88;;;1.30;;
10659;SDS011;5378;53.206;13.316;2023-02-28T04:00:42;8.65;;;1.65;;
10659;SDS011;5378;53.206;13.316;2023-02-28T04:03:32;6.53;;;1.55;;
10659;SDS011;5378;53.206;13.316;2023-02-28T04:06:20;3.28;;;1.40;;
10659;SDS011;5378;53.206;13.316;2023-02-28T04:09:10;3.80;;;1.50;;
10659;SDS011;5378;53.206;13.316;2023-02-28T04:11:56;2.25;;;1.27;;
10659;SDS011;5378;53.206;13.316;2023-02-28T04:14:43;2.88;;;1.30;;
10659;SDS011;5378;53.206;13.316;2023-02-28T04:17:32;4.40;;;1.15;;
10659;SDS011;5378;53.206;13.316;2023-02-28T04:20:19;4.55;;;1.35;;
10659;SDS011;5378;53.206;13.316;2023-02-28T04:23:06;1.15;;;1.00;;
10659;SDS011;5378;53.206;13.316;2023-02-28T04:25:54;1.85;;;0.98;;
10659;SDS011;5378;53.206;13.316;2023-02-28T04:28:41;3.15;;;1.25;;
10659;SDS011;5378;53.206;13.316;2023-02-28T04:31:28;2.90;;;1.38;;
10659;SDS011;5378;53.206;13.316;2023-02-28T04:34:17;2.45;;;1.33;;
10659;SDS011;5378;53.206;13.316;2023-02-28T04:37:05;1.42;;;1.00;;
10659;SDS011;5378;53.206;13.316;2023-02-28T04:39:58;2.00;;;1.08;;
10659;SDS011;5378;53.206;13.316;2023-02-28T04:42:45;4.63;;;0.95;;
10659;SDS011;5378;53.206;13.316;2023-02-28T04:45:32;2.63;;;1.40;;
10659;SDS011;5378;53.206;13.316;2023-02-28T04:48:19;1.75;;;1.13;;
10659;SDS011;5378;53.206;13.316;2023-02-28T04:51:08;2.05;;;1.35;;
10659;SDS011;5378;53.206;13.316;2023-02-28T04:53:56;2.70;;;1.02;;
10659;SDS011;5378;53.206;13.316;2023-02-28T04:56:44;2.60;;;1.27;;
10659;SDS011;5378;53.206;13.316;2023-02-28T04:59:31;1.83;;;1.00;;
10659;SDS011;5378;53.206;13.316;2023-02-28T05:02:18;1.38;;;1.00;;
10659;SDS011;5378;53.206;13.316;2023-02-28T05:05:07;2.85;;;1.20;;
10659;SDS011;5378;53.206;13.316;2023-02-28T05:07:55;3.40;;;1.08;;
10659;SDS011;5378;53.206;13.316;2023-02-28T05:10:42;7.85;;;1.67;;
10659;SDS011;5378;53.206;13.316;2023-02-28T05:13:30;8.23;;;1.05;;
10659;SDS011;5378;53.206;13.316;2023-02-28T05:16:17;3.45;;;1.98;;
10659;SDS011;5378;53.206;13.316;2023-02-28T05:19:05;1.85;;;1.15;;
10659;SDS011;5378;53.206;13.316;2023-02-28T05:21:52;1.58;;;0.95;;
10659;SDS011;5378;53.206;13.316;2023-02-28T05:24:41;0.90;;;0.68;;
10659;SDS011;5378;53.206;13.316;2023-02-28T05:27:29;2.17;;;1.20;;
10659;SDS011;5378;53.206;13.316;2023-02-28T05:30:16;4.30;;;1.25;;
10659;SDS011;5378;53.206;13.316;2023-02-28T05:33:03;4.93;;;1.17;;
10659;SDS011;5378;53.206;13.316;2023-02-28T05:35:50;17.10;;;1.38;;
10659;SDS011;5378;53.206;13.316;2023-02-28T05:38:37;1.88;;;1.25;;
10659;SDS011;5378;53.206;13.316;2023-02-28T05:41:26;2.55;;;1.27;;
10659;SDS011;5378;53.206;13.316;2023-02-28T05:44:13;3.22;;;1.38;;
10659;SDS011;5378;53.206;13.316;2023-02-28T05:47:01;2.47;;;1.00;;
10659;SDS011;5378;53.206;13.316;2023-02-28T05:49:49;1.98;;;1.02;;
10659;SDS011;5378;53.206;13.316;2023-02-28T05:52:36;3.70;;;1.20;;
10659;SDS011;5378;53.206;13.316;2023-02-28T05:55:23;4.05;;;1.20;;
10659;SDS011;5378;53.206;13.316;2023-02-28T05:58:12;1.83;;;1.50;;
10659;SDS011;5378;53.206;13.316;2023-02-28T06:00:59;1.40;;;0.90;;
10659;SDS011;5378;53.206;13.316;2023-02-28T06:04:05;7.65;;;3.30;;
10659;SDS011;5378;53.206;13.316;2023-02-28T06:06:58;11.73;;;3.22;;
10659;SDS011;5378;53.206;13.316;2023-02-28T06:09:46;7.65;;;3.30;;
10659;SDS011;5378;53.206;13.316;2023-02-28T06:12:33;7.43;;;3.00;;
10659;SDS011;5378;53.206;13.316;2023-02-28T06:15:22;5.72;;;1.73;;
10659;SDS011;5378;53.206;13.316;2023-02-28T06:18:09;5.47;;;1.10;;
10659;SDS011;5378;53.206;13.316;2023-02-28T06:20:56;5.50;;;2.30;;
10659;SDS011;5378;53.206;13.316;2023-02-28T06:23:43;2.05;;;1.25;;
10659;SDS011;5378;53.206;13.316;2023-02-28T06:26:31;2.88;;;1.15;;
10659;SDS011;5378;53.206;13.316;2023-02-28T06:29:18;2.47;;;0.95;;
10659;SDS011;5378;53.206;13.316;2023-02-28T06:32:06;1.92;;;1.05;;
10659;SDS011;5378;53.206;13.316;2023-02-28T06:34:54;3.15;;;1.30;;
10659;SDS011;5378;53.206;13.316;2023-02-28T06:37:42;1.27;;;1.13;;
10659;SDS011;5378;53.206;13.316;2023-02-28T06:40:30;1.77;;;0.98;;
10659;SDS011;5378;53.206;13.316;2023-02-28T06:43:19;3.92;;;1.75;;
10659;SDS011;5378;53.206;13.316;2023-02-28T06:46:07;3.58;;;1.10;;
10659;SDS011;5378;53.206;13.316;2023-02-28T06:48:57;1.63;;;1.40;;
10659;SDS011;5378;53.206;13.316;2023-02-28T06:51:45;11.98;;;1.27;;
10659;SDS011;5378;53.206;13.316;2023-02-28T06:54:32;3.47;;;1.60;;
10659;SDS011;5378;53.206;13.316;2023-02-28T06:57:19;0.90;;;0.90;;
10659;SDS011;5378;53.206;13.316;2023-02-28T07:00:07;1.98;;;0.85;;
10659;SDS011;5378;53.206;13.316;2023-02-28T07:02:56;4.72;;;1.33;;
10659;SDS011;5378;53.206;13.316;2023-02-28T07:05:44;2.13;;;1.40;;
10659;SDS011;5378;53.206;13.316;2023-02-28T07:08:31;1.05;;;0.80;;
10659;SDS011;5378;53.206;13.316;2023-02-28T07:11:18;1.45;;;0.90;;
10659;SDS011;5378;53.206;13.316;2023-02-28T07:14:08;1.50;;;1.40;;
10659;SDS011;5378;53.206;13.316;2023-02-28T07:16:55;1.33;;;0.93;;
10659;SDS011;5378;53.206;13.316;2023-02-28T07:19:42;1.95;;;1.55;;
10659;SDS011;5378;53.206;13.316;2023-02-28T07:22:31;1.67;;;0.93;;
10659;SDS011;5378;53.206;13.316;2023-02-28T07:25:18;2.53;;;1.30;;
10659;SDS011;5378;53.206;13.316;2023-02-28T07:28:05;1.90;;;1.30;;
10659;SDS011;5378;53.206;13.316;2023-02-28T07:30:53;2.25;;;1.15;;
10659;SDS011;5378;53.206;13.316;2023-02-28T07:33:40;2.38;;;1.70;;
10659;SDS011;5378;53.206;13.316;2023-02-28T07:36:27;1.80;;;1.33;;
10659;SDS011;5378;53.206;13.316;2023-02-28T07:39:16;1.77;;;1.15;;
10659;SDS011;5378;53.206;13.316;2023-02-28T07:42:04;11.02;;;2.15;;
10659;SDS011;5378;53.206;13.316;2023-02-28T07:44:51;2.35;;;1.42;;
10659;SDS011;5378;53.206;13.316;2023-02-28T07:47:38;2.00;;;1.35;;
10659;SDS011;5378;53.206;13.316;2023-02-28T07:50:25;3.07;;;2.17;;
10659;SDS011;5378;53.206;13.316;2023-02-28T07:53:14;4.38;;;2.88;;
10659;SDS011;5378;53.206;13.316;2023-02-28T07:56:03;2.95;;;2.28;;
10659;SDS011;5378;53.206;13.316;2023-02-28T07:58:52;3.30;;;2.17;;
10659;SDS011;5378;53.206;13.316;2023-02-28T08:01:40;7.60;;;2.57;;
10659;SDS011;5378;53.206;13.316;2023-02-28T08:04:27;7.83;;;3.33;;
10659;SDS011;5378;53.206;13.316;2023-02-28T08:07:14;7.97;;;3.37;;
10659;SDS011;5378;53.206;13.316;2023-02-28T08:10:02;9.03;;;4.10;;
10659;SDS011;5378;53.206;13.316;2023-02-28T08:12:52;16.33;;;4.80;;
10659;SDS011;5378;53.206;13.316;2023-02-28T08:15:40;10.93;;;4.17;;
10659;SDS011;5378;53.206;13.316;2023-02-28T08:18:28;6.90;;;3.40;;
10659;SDS011;5378;53.206;13.316;2023-02-28T08:21:15;5.50;;;3.00;;
10659;SDS011;5378;53.206;13.316;2023-02-28T08:24:02;3.90;;;2.03;;
10659;SDS011;5378;53.206;13.316;2023-02-28T08:26:50;17.37;;;2.63;;
10659;SDS011;5378;53.206;13.316;2023-02-28T08:29:38;5.83;;;2.43;;
10659;SDS011;5378;53.206;13.316;2023-02-28T08:32:26;6.93;;;3.27;;
10659;SDS011;5378;53.206;13.316;2023-02-28T08:35:14;7.90;;;3.33;;
10659;SDS011;5378;53.206;13.316;2023-02-28T08:38:02;6.40;;;2.30;;
10659;SDS011;5378;53.206;13.316;2023-02-28T08:40:49;3.90;;;1.90;;
10659;SDS011;5378;53.206;13.316;2023-02-28T08:43:36;8.60;;;3.13;;
10659;SDS011;5378;53.206;13.316;2023-02-28T08:46:25;5.50;;;2.80;;
10659;SDS011;5378;53.206;13.316;2023-02-28T08:49:12;6.30;;;3.73;;
10659;SDS011;5378;53.206;13.316;2023-02-28T08:51:59;6.67;;;3.40;;
10659;SDS011;5378;53.206;13.316;2023-02-28T08:54:47;8.47;;;4.03;;
10659;SDS011;5378;53.206;13.316;2023-02-28T08:57:34;4.80;;;2.90;;
10659;SDS011;5378;53.206;13.316;2023-02-28T09:00:22;9.20;;;5.10;;
10659;SDS011;5378;53.206;13.316;2023-02-28T09:03:11;15.87;;;5.03;;
10659;SDS011;5378;53.206;13.316;2023-02-28T09:05:58;8.87;;;5.00;;
10659;SDS011;5378;53.206;13.316;2023-02-28T09:08:46;17.27;;;6.90;;
10659;SDS011;5378;53.206;13.316;2023-02-28T09:11:34;13.83;;;4.87;;
10659;SDS011;5378;53.206;13.316;2023-02-28T09:14:21;6.20;;;3.87;;
10659;SDS011;5378;53.206;13.316;2023-02-28T09:17:08;13.00;;;4.70;;
10659;SDS011;5378;53.206;13.316;2023-02-28T09:19:57;10.23;;;5.60;;
10659;SDS011;5378;53.206;13.316;2023-02-28T09:22:44;9.83;;;4.63;;
10659;SDS011;5378;53.206;13.316;2023-02-28T09:25:32;8.87;;;3.77;;
10659;SDS011;5378;53.206;13.316;2023-02-28T09:28:19;9.13;;;4.13;;
10659;SDS011;5378;53.206;13.316;2023-02-28T09:31:10;9.87;;;4.10;;
10659;SDS011;5378;53.206;13.316;2023-02-28T09:33:59;12.83;;;4.77;;
10659;SDS011;5378;53.206;13.316;2023-02-28T09:36:47;9.30;;;4.70;;
10659;SDS011;5378;53.206;13.316;2023-02-28T09:39:36;7.70;;;4.57;;
10659;SDS011;5378;53.206;13.316;2023-02-28T09:42:25;16.40;;;4.67;;
10659;SDS011;5378;53.206;13.316;2023-02-28T09:45:19;11.07;;;4.00;;
10659;SDS011;5378;53.206;13.316;2023-02-28T09:48:12;6.67;;;3.87;;
10659;SDS011;5378;53.206;13.316;2023-02-28T09:51:03;9.27;;;2.70;;
10659;SDS011;5378;53.206;13.316;2023-02-28T09:53:59;8.60;;;2.70;;
10659;SDS011;5378;53.206;13.316;2023-02-28T09:56:48;6.50;;;3.27;;
10659;SDS011;5378;53.206;13.316;2023-02-28T09:59:48;7.93;;;2.53;;
10659;SDS011;5378;53.206;13.316;2023-02-28T10:02:49;3.00;;;1.77;;
10659;SDS011;5378;53.206;13.316;2023-02-28T10:05:48;7.03;;;2.60;;
10659;SDS011;5378;53.206;13.316;2023-02-28T10:08:40;4.70;;;1.90;;
10659;SDS011;5378;53.206;13.316;2023-02-28T10:11:37;3.70;;;1.70;;
10659;SDS011;5378;53.206;13.316;2023-02-28T10:14:27;2.83;;;1.80;;
10659;SDS011;5378;53.206;13.316;2023-02-28T10:17:16;4.97;;;2.00;;
10659;SDS011;5378;53.206;13.316;2023-02-28T10:20:07;3.27;;;1.70;;
10659;SDS011;5378;53.206;13.316;2023-02-28T10:23:02;8.43;;;2.23;;
10659;SDS011;5378;53.206;13.316;2023-02-28T10:25:57;3.60;;;1.23;;
10659;SDS011;5378;53.206;13.316;2023-02-28T10:28:47;3.47;;;1.30;;
10659;SDS011;5378;53.206;13.316;2023-02-28T10:31:34;4.63;;;1.60;;
10659;SDS011;5378;53.206;13.316;2023-02-28T10:34:22;3.03;;;1.87;;
10659;SDS011;5378;53.206;13.316;2023-02-28T10:37:10;5.20;;;1.43;;
10659;SDS011;5378;53.206;13.316;2023-02-28T10:39:59;2.13;;;1.40;;
10659;SDS011;5378;53.206;13.316;2023-02-28T10:42:54;2.10;;;1.40;;
10659;SDS011;5378;53.206;13.316;2023-02-28T10:45:53;3.13;;;1.60;;
10659;SDS011;5378;53.206;13.316;2023-02-28T10:48:43;2.37;;;1.13;;
10659;SDS011;5378;53.206;13.316;2023-02-28T10:51:34;1.70;;;1.07;;
10659;SDS011;5378;53.206;13.316;2023-02-28T10:54:24;8.30;;;0.80;;
10659;SDS011;5378;53.206;13.316;2023-02-28T10:57:17;6.27;;;1.37;;
10659;SDS011;5378;53.206;13.316;2023-02-28T11:00:08;3.30;;;0.87;;
10659;SDS011;5378;53.206;13.316;2023-02-28T11:03:03;3.67;;;1.43;;
10659;SDS011;5378;53.206;13.316;2023-02-28T11:06:13;2.30;;;1.17;;
10659;SDS011;5378;53.206;13.316;2023-02-28T11:09:04;6.67;;;1.80;;
10659;SDS011;5378;53.206;13.316;2023-02-28T11:12:05;4.90;;;2.27;;
10659;SDS011;5378;53.206;13.316;2023-02-28T11:14:54;2.10;;;1.40;;
10659;SDS011;5378;53.206;13.316;2023-02-28T11:17:44;4.23;;;1.53;;
10659;SDS011;5378;53.206;13.316;2023-02-28T11:20:42;2.83;;;1.30;;
10659;SDS011;5378;53.206;13.316;2023-02-28T11:23:35;0.80;;;0.80;;
10659;SDS011;5378;53.206;13.316;2023-02-28T11:26:36;3.57;;;1.23;;
10659;SDS011;5378;53.206;13.316;2023-02-28T11:29:29;1.77;;;1.23;;
10659;SDS011;5378;53.206;13.316;2023-02-28T11:32:18;2.20;;;1.10;;
10659;SDS011;5378;53.206;13.316;2023-02-28T11:35:14;2.93;;;1.23;;
10659;SDS011;5378;53.206;13.316;2023-02-28T11:38:09;1.70;;;0.90;;
10659;SDS011;5378;53.206;13.316;2023-02-28T11:41:02;1.00;;;0.73;;
10659;SDS011;5378;53.206;13.316;2023-02-28T11:44:16;2.70;;;1.10;;
10659;SDS011;5378;53.206;13.316;2023-02-28T11:47:17;1.57;;;0.87;;
10659;SDS011;5378;53.206;13.316;2023-02-28T11:50:16;5.60;;;1.53;;
10659;SDS011;5378;53.206;13.316;2023-02-28T11:53:28;3.67;;;1.30;;
10659;SDS011;5378;53.206;13.316;2023-02-28T11:56:29;5.50;;;1.50;;
10659;SDS011;5378;53.206;13.316;2023-02-28T11:59:26;3.13;;;1.33;;
10659;SDS011;5378;53.206;13.316;2023-02-28T12:02:23;4.63;;;1.70;;
10659;SDS011;5378;53.206;13.316;2023-02-28T12:05:17;2.03;;;1.23;;
10659;SDS011;5378;53.206;13.316;2023-02-28T12:08:21;4.43;;;1.40;;
10659;SDS011;5378;53.206;13.316;2023-02-28T12:11:27;4.17;;;1.50;;
10659;SDS011;5378;53.206;13.316;2023-02-28T12:14:25;1.57;;;1.10;;
10659;SDS011;5378;53.206;13.316;2023-02-28T12:17:43;4.83;;;1.23;;
10659;SDS011;5378;53.206;13.316;2023-02-28T12:20:40;2.73;;;1.27;;
10659;SDS011;5378;53.206;13.316;2023-02-28T12:23:45;4.57;;;2.00;;
10659;SDS011;5378;53.206;13.316;2023-02-28T12:26:47;1.63;;;1.10;;
10659;SDS011;5378;53.206;13.316;2023-02-28T12:29:38;5.60;;;1.40;;
10659;SDS011;5378;53.206;13.316;2023-02-28T12:32:31;4.83;;;1.60;;
10659;SDS011;5378;53.206;13.316;2023-02-28T12:35:22;2.47;;;1.50;;
10659;SDS011;5378;53.206;13.316;2023-02-28T12:38:12;4.70;;;1.77;;
10659;SDS011;5378;53.206;13.316;2023-02-28T12:41:08;5.60;;;1.30;;
10659;SDS011;5378;53.206;13.316;2023-02-28T12:44:00;6.40;;;2.10;;
10659;SDS011;5378;53.206;13.316;2023-02-28T12:46:52;3.37;;;0.90;;
10659;SDS011;5378;53.206;13.316;2023-02-28T12:49:45;3.13;;;1.90;;
10659;SDS011;5378;53.206;13.316;2023-02-28T12:52:37;9.40;;;4.10;;
10659;SDS011;5378;53.206;13.316;2023-02-28T12:55:31;10.00;;;2.57;;
10659;SDS011;5378;53.206;13.316;2023-02-28T12:58:29;4.50;;;1.70;;
10659;SDS011;5378;53.206;13.316;2023-02-28T13:01:27;2.60;;;1.50;;
10659;SDS011;5378;53.206;13.316;2023-02-28T13:10:58;2.30;;;1.63;;
10659;SDS011;5378;53.206;13.316;2023-02-28T13:13:49;2.77;;;1.40;;
10659;SDS011;5378;53.206;13.316;2023-02-28T13:19:56;5.03;;;1.53;;
10659;SDS011;5378;53.206;13.316;2023-02-28T13:22:46;3.90;;;1.43;;
10659;SDS011;5378;53.206;13.316;2023-02-28T13:32:28;3.23;;;1.40;;
10659;SDS011;5378;53.206;13.316;2023-02-28T13:38:33;2.77;;;1.30;;
10659;SDS011;5378;53.206;13.316;2023-02-28T13:41:40;3.20;;;1.43;;
10659;SDS011;5378;53.206;13.316;2023-02-28T13:44:32;3.03;;;1.10;;
10659;SDS011;5378;53.206;13.316;2023-02-28T13:48:00;5.57;;;1.80;;
10659;SDS011;5378;53.206;13.316;2023-02-28T13:50:49;2.43;;;1.33;;
10659;SDS011;5378;53.206;13.316;2023-02-28T13:53:40;2.77;;;1.20;;
10659;SDS011;5378;53.206;13.316;2023-02-28T13:56:46;2.10;;;1.33;;
10659;SDS011;5378;53.206;13.316;2023-02-28T13:59:42;4.47;;;1.20;;
10659;SDS011;5378;53.206;13.316;2023-02-28T14:02:41;2.80;;;1.30;;
10659;SDS011;5378;53.206;13.316;2023-02-28T14:05:36;3.90;;;1.77;;
10659;SDS011;5378;53.206;13.316;2023-02-28T14:08:24;2.10;;;1.70;;
10659;SDS011;5378;53.206;13.316;2023-02-28T14:11:23;3.63;;;1.23;;
10659;SDS011;5378;53.206;13.316;2023-02-28T14:17:29;4.00;;;0.90;;
10659;SDS011;5378;53.206;13.316;2023-02-28T14:20:16;6.13;;;1.20;;
10659;SDS011;5378;53.206;13.316;2023-02-28T14:23:06;4.63;;;1.50;;
10659;SDS011;5378;53.206;13.316;2023-02-28T14:26:02;1.10;;;0.90;;
10659;SDS011;5378;53.206;13.316;2023-02-28T14:29:03;1.73;;;1.03;;
10659;SDS011;5378;53.206;13.316;2023-02-28T14:32:06;4.27;;;0.80;;
10659;SDS011;5378;53.206;13.316;2023-02-28T14:35:02;2.80;;;1.37;;
10659;SDS011;5378;53.206;13.316;2023-02-28T14:38:04;2.30;;;1.10;;
10659;SDS011;5378;53.206;13.316;2023-02-28T14:41:00;1.83;;;0.80;;
10659;SDS011;5378;53.206;13.316;2023-02-28T14:43:52;1.97;;;0.87;;
10659;SDS011;5378;53.206;13.316;2023-02-28T14:46:42;6.63;;;1.90;;
10659;SDS011;5378;53.206;13.316;2023-02-28T14:49:31;7.93;;;1.07;;
10659;SDS011;5378;53.206;13.316;2023-02-28T14:52:22;2.70;;;1.00;;
10659;SDS011;5378;53.206;13.316;2023-02-28T14:55:15;2.33;;;1.10;;
10659;SDS011;5378;53.206;13.316;2023-02-28T14:58:05;3.37;;;1.57;;
10659;SDS011;5378;53.206;13.316;2023-02-28T15:00:53;7.03;;;1.07;;
10659;SDS011;5378;53.206;13.316;2023-02-28T15:03:42;3.43;;;1.20;;
10659;SDS011;5378;53.206;13.316;2023-02-28T15:06:30;3.67;;;1.67;;
10659;SDS011;5378;53.206;13.316;2023-02-28T15:09:18;5.33;;;2.00;;
10659;SDS011;5378;53.206;13.316;2023-02-28T15:12:09;3.00;;;1.10;;
10659;SDS011;5378;53.206;13.316;2023-02-28T15:15:00;3.13;;;0.73;;
10659;SDS011;5378;53.206;13.316;2023-02-28T15:17:49;1.83;;;1.07;;
10659;SDS011;5378;53.206;13.316;2023-02-28T15:20:39;4.57;;;1.33;;
10659;SDS011;5378;53.206;13.316;2023-02-28T15:23:28;7.00;;;2.53;;
10659;SDS011;5378;53.206;13.316;2023-02-28T15:26:16;5.07;;;1.20;;
10659;SDS011;5378;53.206;13.316;2023-02-28T15:29:11;1.57;;;1.00;;
10659;SDS011;5378;53.206;13.316;2023-02-28T15:32:02;1.93;;;0.93;;
10659;SDS011;5378;53.206;13.316;2023-02-28T15:34:51;3.10;;;1.30;;
10659;SDS011;5378;53.206;13.316;2023-02-28T15:37:39;3.10;;;1.53;;
10659;SDS011;5378;53.206;13.316;2023-02-28T15:40:35;2.43;;;1.40;;
10659;SDS011;5378;53.206;13.316;2023-02-28T15:43:24;13.33;;;1.40;;
10659;SDS011;5378;53.206;13.316;2023-02-28T15:46:14;3.27;;;1.30;;
10659;SDS011;5378;53.206;13.316;2023-02-28T15:49:02;1.53;;;1.20;;
10659;SDS011;5378;53.206;13.316;2023-02-28T15:51:49;23.57;;;1.57;;
10659;SDS011;5378;53.206;13.316;2023-02-28T15:54:39;3.93;;;1.17;;
10659;SDS011;5378;53.206;13.316;2023-02-28T15:57:27;1.27;;;1.00;;
10659;SDS011;5378;53.206;13.316;2023-02-28T16:00:18;1.63;;;1.00;;
10659;SDS011;5378;53.206;13.316;2023-02-28T16:03:24;4.00;;;1.13;;
10659;SDS011;5378;53.206;13.316;2023-02-28T16:09:28;2.40;;;0.80;;
10659;SDS011;5378;53.206;13.316;2023-02-28T16:12:19;1.50;;;0.80;;
10659;SDS011;5378;53.206;13.316;2023-02-28T16:15:17;1.73;;;0.80;;
10659;SDS011;5378;53.206;13.316;2023-02-28T16:18:07;3.70;;;1.17;;
10659;SDS011;5378;53.206;13.316;2023-02-28T16:20:58;1.67;;;0.90;;
10659;SDS011;5378;53.206;13.316;2023-02-28T16:23:44;1.60;;;1.33;;
10659;SDS011;5378;53.206;13.316;2023-02-28T16:26:31;4.70;;;1.53;;
10659;SDS011;5378;53.206;13.316;2023-02-28T16:29:22;4.00;;;1.57;;
10659;SDS011;5378;53.206;13.316;2023-02-28T16:32:13;6.40;;;1.00;;
10659;SDS011;5378;53.206;13.316;2023-02-28T16:35:02;2.57;;;1.23;;
10659;SDS011;5378;53.206;13.316;2023-02-28T16:37:51;3.17;;;1.40;;
10659;SDS011;5378;53.206;13.316;2023-02-28T16:40:39;4.80;;;1.30;;
10659;SDS011;5378;53.206;13.316;2023-02-28T16:43:27;3.33;;;1.77;;
10659;SDS011;5378;53.206;13.316;2023-02-28T16:46:15;1.70;;;1.00;;
10659;SDS011;5378;53.206;13.316;2023-02-28T16:49:03;4.87;;;0.83;;
10659;SDS011;5378;53.206;13.316;2023-02-28T16:51:50;5.33;;;1.73;;
10659;SDS011;5378;53.206;13.316;2023-02-28T16:54:38;7.63;;;1.77;;
10659;SDS011;5378;53.206;13.316;2023-02-28T16:57:26;3.17;;;1.60;;
10659;SDS011;5378;53.206;13.316;2023-02-28T17:00:13;3.13;;;1.40;;
10659;SDS011;5378;53.206;13.316;2023-02-28T17:03:00;5.50;;;1.03;;
10659;SDS011;5378;53.206;13.316;2023-02-28T17:05:50;6.53;;;1.70;;
10659;SDS011;5378;53.206;13.316;2023-02-28T17:08:37;2.57;;;1.50;;
10659;SDS011;5378;53.206;13.316;2023-02-28T17:11:26;6.83;;;1.13;;
10659;SDS011;5378;53.206;13.316;2023-02-28T17:14:13;4.50;;;2.20;;
10659;SDS011;5378;53.206;13.316;2023-02-28T17:17:00;5.73;;;1.57;;
10659;SDS011;5378;53.206;13.316;2023-02-28T17:19:48;3.27;;;1.50;;
10659;SDS011;5378;53.206;13.316;2023-02-28T17:22:35;6.40;;;2.67;;
10659;SDS011;5378;53.206;13.316;2023-02-28T17:25:22;1.80;;;1.00;;
10659;SDS011;5378;53.206;13.316;2023-02-28T17:28:11;6.37;;;2.90;;
10659;SDS011;5378;53.206;13.316;2023-02-28T17:30:59;10.57;;;3.57;;
10659;SDS011;5378;53.206;13.316;2023-02-28T17:33:45;18.67;;;7.10;;
10659;SDS011;5378;53.206;13.316;2023-02-28T17:36:33;25.57;;;7.17;;
10659;SDS011;5378;53.206;13.316;2023-02-28T17:39:21;15.63;;;5.10;;